ポルトープランス の空港の天気 - METARとTAF

ポルトープランス国際空港 ( MTPP / PAP ) - ハイチ ポルトープランス
飛行場実況気象(Metar)
観測時間07/12 10:51 EDT (07/12 14:51 UTC)
風向・風速不定 1m/s
視程9000m
天気現象
少しの雲 雲底高度 850m
気温32℃
湿度59%
気圧1016hPa
METARMTPP 121451Z VRB02KT 9000 FEW028 32/23 Q1016 A3000
過去の天気等 Google飛行場航空写真 Wunderground天気予報

過去48時間のMETAR

飛行場予報(TAF)
データがありません